createdAt,value
2023-03-18T00:00:32.669Z,4.40
2023-03-18T00:03:00.250Z,4.40
2023-03-18T00:05:27.413Z,4.40
2023-03-18T00:07:54.154Z,4.30
2023-03-18T00:10:21.444Z,4.30
2023-03-18T00:12:48.541Z,4.30
2023-03-18T00:15:18.257Z,4.30
2023-03-18T00:17:46.714Z,4.30
2023-03-18T00:20:16.934Z,4.20
2023-03-18T00:22:45.491Z,4.20
2023-03-18T00:25:14.825Z,4.20
2023-03-18T00:27:41.958Z,4.20
2023-03-18T00:30:10.080Z,4.20
2023-03-18T00:32:36.965Z,4.20
2023-03-18T00:35:04.611Z,4.20
2023-03-18T00:37:33.634Z,4.20
2023-03-18T00:40:07.795Z,4.20
2023-03-18T00:42:39.112Z,4.20
2023-03-18T00:45:11.934Z,4.20
2023-03-18T00:47:38.757Z,4.20
2023-03-18T00:50:08.401Z,4.20
2023-03-18T00:52:36.476Z,4.20
2023-03-18T00:55:04.313Z,4.20
2023-03-18T00:57:31.364Z,4.20
2023-03-18T00:59:59.393Z,4.20
2023-03-18T01:02:27.555Z,4.20
2023-03-18T01:04:54.399Z,4.20
2023-03-18T01:07:21.141Z,4.20
2023-03-18T01:09:48.201Z,4.20
2023-03-18T01:12:15.513Z,4.20
2023-03-18T01:14:43.112Z,4.20
2023-03-18T01:17:11.194Z,4.20
2023-03-18T01:19:38.614Z,4.10
2023-03-18T01:22:06.575Z,4.10
2023-03-18T01:24:33.907Z,4.10
2023-03-18T01:27:00.756Z,4.10
2023-03-18T01:29:27.586Z,4.10
2023-03-18T01:31:55.127Z,4.10
2023-03-18T01:34:22.015Z,4.10
2023-03-18T01:36:49.755Z,4.10
2023-03-18T01:39:17.651Z,4.00
2023-03-18T01:41:46.083Z,4.00
2023-03-18T01:44:19.293Z,4.00
2023-03-18T01:46:48.454Z,4.00
2023-03-18T01:49:31.507Z,4.00
2023-03-18T01:52:07.845Z,4.00
2023-03-18T01:54:43.208Z,4.00
2023-03-18T01:57:10.527Z,4.00
2023-03-18T01:59:41.314Z,4.00
2023-03-18T02:02:14.594Z,4.00
2023-03-18T02:04:50.448Z,3.90
2023-03-18T02:07:20.877Z,3.90
2023-03-18T02:09:49.854Z,3.90
2023-03-18T02:12:24.419Z,3.90
2023-03-18T02:14:53.248Z,3.90
2023-03-18T02:17:25.111Z,3.90
2023-03-18T02:20:29.882Z,3.90
2023-03-18T02:23:17.277Z,3.80
2023-03-18T02:25:44.058Z,3.90
2023-03-18T02:28:16.482Z,3.80
2023-03-18T02:30:49.349Z,3.80
2023-03-18T02:33:18.721Z,3.80
2023-03-18T02:35:50.306Z,3.80
2023-03-18T02:38:17.398Z,3.80
2023-03-18T02:40:46.349Z,3.80
2023-03-18T02:43:31.230Z,3.80
2023-03-18T02:46:04.149Z,3.80
2023-03-18T02:48:37.137Z,3.80
2023-03-18T02:51:05.792Z,3.80
2023-03-18T02:53:33.240Z,3.80
2023-03-18T02:56:00.168Z,3.80
2023-03-18T02:58:27.142Z,3.80
2023-03-18T03:00:54.932Z,3.70
2023-03-18T03:03:23.279Z,3.80
2023-03-18T03:05:50.276Z,3.70
2023-03-18T03:08:17.310Z,3.70
2023-03-18T03:10:44.364Z,3.70
2023-03-18T03:13:12.058Z,3.60
2023-03-18T03:15:40.670Z,3.70
2023-03-18T03:18:08.639Z,3.60
2023-03-18T03:20:37.400Z,3.60
2023-03-18T03:23:06.565Z,3.60
2023-03-18T03:25:34.172Z,3.50
2023-03-18T03:28:01.638Z,3.60
2023-03-18T03:30:28.586Z,3.50
2023-03-18T03:32:56.029Z,3.50
2023-03-18T03:35:24.368Z,3.50
2023-03-18T03:37:51.796Z,3.40
2023-03-18T03:40:20.548Z,3.40
2023-03-18T03:42:48.935Z,3.50
2023-03-18T03:45:20.158Z,3.40
2023-03-18T03:47:47.495Z,3.40
2023-03-18T03:50:16.672Z,3.40
2023-03-18T03:52:43.955Z,3.40
2023-03-18T03:55:13.470Z,3.40
2023-03-18T03:57:40.733Z,3.40
2023-03-18T04:00:13.659Z,3.40
2023-03-18T04:02:43.435Z,3.40
2023-03-18T04:05:11.703Z,3.40
2023-03-18T04:07:39.419Z,3.40
2023-03-18T04:10:09.453Z,3.40
2023-03-18T04:12:38.782Z,3.40
2023-03-18T04:15:06.904Z,3.40
2023-03-18T04:17:34.688Z,3.30
2023-03-18T04:20:02.131Z,3.30
2023-03-18T04:22:29.660Z,3.30
2023-03-18T04:24:56.550Z,3.30
2023-03-18T04:27:23.572Z,3.30
2023-03-18T04:29:50.568Z,3.30
2023-03-18T04:32:17.628Z,3.30
2023-03-18T04:34:44.699Z,3.30
2023-03-18T04:37:14.139Z,3.30
2023-03-18T04:39:41.842Z,3.30
2023-03-18T04:42:08.945Z,3.20
2023-03-18T04:44:37.228Z,3.20
2023-03-18T04:47:04.304Z,3.20
2023-03-18T04:49:31.323Z,3.20
2023-03-18T04:51:58.127Z,3.20
2023-03-18T04:54:24.942Z,3.20
2023-03-18T04:56:52.193Z,3.20
2023-03-18T04:59:19.151Z,3.10
2023-03-18T05:01:47.007Z,3.10
2023-03-18T05:04:13.966Z,3.10
2023-03-18T05:06:41.287Z,3.10
2023-03-18T05:09:10.137Z,3.10
2023-03-18T05:11:37.014Z,3.20
2023-03-18T05:14:03.838Z,3.20
2023-03-18T05:16:30.818Z,3.20
2023-03-18T05:18:57.799Z,3.20
2023-03-18T05:21:25.693Z,3.20
2023-03-18T05:23:52.727Z,3.20
2023-03-18T05:26:20.492Z,3.30
2023-03-18T05:28:47.750Z,3.40
2023-03-18T05:31:14.855Z,3.40
2023-03-18T05:33:42.570Z,3.50
2023-03-18T05:36:09.745Z,3.50
2023-03-18T05:38:36.580Z,3.60
2023-03-18T05:41:03.894Z,3.60
2023-03-18T05:43:31.599Z,3.70
2023-03-18T05:45:58.772Z,3.80
2023-03-18T05:48:25.731Z,3.90
2023-03-18T05:50:52.909Z,4.00
2023-03-18T05:53:19.807Z,4.10
2023-03-18T05:55:46.656Z,4.10
2023-03-18T05:58:13.423Z,4.20
2023-03-18T06:00:41.533Z,4.30
2023-03-18T06:03:10.565Z,4.40
2023-03-18T06:05:38.615Z,4.50
2023-03-18T06:08:05.582Z,4.60
2023-03-18T06:10:33.507Z,4.70
2023-03-18T06:13:01.007Z,4.80
2023-03-18T06:15:28.007Z,4.80
2023-03-18T06:17:54.945Z,4.90
2023-03-18T06:20:23.424Z,5.00
2023-03-18T06:22:50.598Z,5.10
2023-03-18T06:25:22.156Z,5.10
2023-03-18T06:27:50.603Z,5.20
2023-03-18T06:30:18.689Z,5.20
2023-03-18T06:32:45.699Z,5.30
2023-03-18T06:35:13.879Z,5.30
2023-03-18T06:37:40.574Z,5.40
2023-03-18T06:40:09.516Z,5.50
2023-03-18T06:42:36.695Z,5.50
2023-03-18T06:45:04.248Z,5.50
2023-03-18T06:47:31.314Z,5.60
2023-03-18T06:49:58.102Z,5.70
2023-03-18T06:52:24.870Z,5.70
2023-03-18T06:54:51.921Z,5.70
2023-03-18T06:57:18.804Z,5.80
2023-03-18T06:59:45.861Z,5.90
2023-03-18T07:02:13.193Z,5.90
2023-03-18T07:04:39.938Z,6.00
2023-03-18T07:07:07.235Z,6.10
2023-03-18T07:09:34.030Z,6.20
2023-03-18T07:12:01.266Z,6.20
2023-03-18T07:14:28.650Z,6.20
2023-03-18T07:16:56.110Z,6.30
2023-03-18T07:19:23.205Z,6.40
2023-03-18T07:21:50.467Z,6.40
2023-03-18T07:24:17.981Z,6.40
2023-03-18T07:26:45.524Z,6.50
2023-03-18T07:29:12.285Z,6.50
2023-03-18T07:31:39.904Z,6.60
2023-03-18T07:34:07.002Z,6.70
2023-03-18T07:36:33.847Z,6.80
2023-03-18T07:39:00.649Z,6.90
2023-03-18T07:41:27.806Z,7.10
2023-03-18T07:43:55.195Z,7.20
2023-03-18T07:46:24.637Z,7.30
2023-03-18T07:48:51.766Z,7.40
2023-03-18T07:51:18.543Z,7.50
2023-03-18T07:53:46.337Z,7.60
2023-03-18T07:56:13.265Z,7.70
2023-03-18T07:58:40.044Z,7.80
2023-03-18T08:01:07.631Z,7.90
2023-03-18T08:03:35.035Z,7.90
2023-03-18T08:06:02.749Z,7.90
2023-03-18T08:08:29.708Z,8.00
2023-03-18T08:10:58.674Z,8.10
2023-03-18T08:13:26.114Z,8.20
2023-03-18T08:15:54.158Z,8.20
2023-03-18T08:18:21.417Z,8.30
2023-03-18T08:20:48.594Z,8.30
2023-03-18T08:23:15.843Z,8.40
2023-03-18T08:25:43.434Z,8.50
2023-03-18T08:28:11.697Z,8.60
2023-03-18T08:30:39.817Z,8.70
2023-03-18T08:33:06.730Z,8.70
2023-03-18T08:35:34.611Z,8.90
2023-03-18T08:38:02.057Z,9.00
2023-03-18T08:40:29.413Z,9.10
2023-03-18T08:42:56.653Z,9.20
2023-03-18T08:45:23.628Z,9.30
2023-03-18T08:47:50.700Z,9.30
2023-03-18T08:50:17.588Z,9.30
2023-03-18T08:52:44.424Z,9.30
2023-03-18T08:55:11.356Z,9.30
2023-03-18T08:57:38.199Z,9.30
2023-03-18T09:00:07.510Z,9.40
2023-03-18T09:02:34.292Z,9.40
2023-03-18T09:05:01.321Z,9.50
2023-03-18T09:07:29.224Z,9.60
2023-03-18T09:09:56.080Z,9.60
2023-03-18T09:12:23.301Z,9.60
2023-03-18T09:14:50.476Z,9.70
2023-03-18T09:17:17.610Z,9.80
2023-03-18T09:19:44.761Z,9.90
2023-03-18T09:22:11.795Z,9.90
2023-03-18T09:24:38.618Z,9.90
2023-03-18T09:27:05.630Z,10.00
2023-03-18T09:29:32.978Z,10.00
2023-03-18T09:32:00.617Z,10.00
2023-03-18T09:34:27.792Z,10.10
2023-03-18T09:36:54.680Z,10.10
2023-03-18T09:39:22.223Z,10.10
2023-03-18T09:42:27.705Z,10.20
2023-03-18T09:45:02.460Z,10.20
2023-03-18T09:47:52.817Z,10.30
2023-03-18T09:50:27.657Z,10.30
2023-03-18T09:52:57.792Z,10.40
2023-03-18T09:55:35.675Z,10.50
2023-03-18T09:58:06.566Z,10.60
2023-03-18T10:00:38.017Z,10.70
2023-03-18T10:03:39.780Z,10.70
2023-03-18T10:06:16.374Z,10.80
2023-03-18T10:08:52.981Z,10.90
2023-03-18T10:11:28.282Z,10.90
2023-03-18T10:14:10.405Z,11.00
2023-03-18T10:16:49.265Z,11.10
2023-03-18T10:19:16.437Z,11.10
2023-03-18T10:22:12.597Z,11.20
2023-03-18T10:25:17.198Z,11.30
2023-03-18T10:28:04.980Z,11.40
2023-03-18T10:30:39.154Z,11.50
2023-03-18T10:33:23.593Z,11.50
2023-03-18T10:35:59.453Z,11.60
2023-03-18T10:38:34.261Z,11.60
2023-03-18T10:41:02.084Z,11.60
2023-03-18T10:43:34.233Z,11.70
2023-03-18T10:46:14.515Z,11.80
2023-03-18T10:49:08.024Z,11.80
2023-03-18T10:51:40.094Z,11.80
2023-03-18T10:54:19.636Z,11.80
2023-03-18T10:56:46.892Z,11.80
2023-03-18T10:59:16.411Z,11.90
2023-03-18T11:01:46.921Z,11.90
2023-03-18T11:04:19.395Z,11.90
2023-03-18T11:06:51.459Z,11.90
2023-03-18T11:09:21.108Z,11.90
2023-03-18T11:11:50.894Z,11.90
2023-03-18T11:14:22.977Z,11.90
2023-03-18T11:16:57.959Z,12.00
2023-03-18T11:19:28.004Z,12.00
2023-03-18T11:22:24.581Z,12.00
2023-03-18T11:25:16.515Z,12.00
2023-03-18T11:27:58.295Z,12.10
2023-03-18T11:30:36.585Z,12.10
2023-03-18T11:33:15.181Z,12.20
2023-03-18T11:35:51.869Z,12.30
2023-03-18T11:38:28.609Z,12.40
2023-03-18T11:41:16.946Z,12.40
2023-03-18T11:43:59.345Z,12.50
2023-03-18T11:46:31.836Z,12.70
2023-03-18T11:48:59.414Z,12.80
2023-03-18T11:51:41.112Z,13.00
2023-03-18T11:54:17.320Z,13.30
2023-03-18T11:56:57.337Z,13.70
2023-03-18T11:59:46.886Z,14.20
2023-03-18T12:02:59.529Z,14.80
2023-03-18T12:05:40.813Z,15.70
2023-03-18T12:08:34.043Z,16.30
2023-03-18T12:11:19.981Z,16.90
2023-03-18T12:13:57.837Z,17.60
2023-03-18T12:16:37.270Z,18.20
2023-03-18T12:19:24.202Z,18.60
2023-03-18T12:22:28.422Z,19.10
2023-03-18T12:25:07.385Z,19.40
2023-03-18T12:28:03.542Z,19.60
2023-03-18T12:30:36.790Z,19.80
2023-03-18T12:33:22.002Z,20.00
2023-03-18T12:36:11.019Z,20.10
2023-03-18T12:38:41.029Z,20.20
2023-03-18T12:41:29.540Z,20.30
2023-03-18T12:44:22.933Z,20.40
2023-03-18T12:47:09.270Z,20.50
2023-03-18T12:49:43.663Z,20.50
2023-03-18T12:52:22.231Z,20.40
2023-03-18T12:55:01.214Z,20.40
2023-03-18T12:57:45.807Z,20.30
2023-03-18T13:00:35.408Z,20.30
2023-03-18T13:03:28.484Z,20.20
2023-03-18T13:06:27.356Z,20.10
2023-03-18T13:09:00.769Z,20.00
2023-03-18T13:11:45.418Z,20.00
2023-03-18T13:14:18.056Z,20.00
2023-03-18T13:16:47.351Z,20.00
2023-03-18T13:19:14.228Z,19.90
2023-03-18T13:21:44.844Z,19.70
2023-03-18T13:24:43.324Z,19.50
2023-03-18T13:27:28.302Z,19.10
2023-03-18T13:30:22.188Z,18.80
2023-03-18T13:33:16.618Z,18.50
2023-03-18T13:35:43.676Z,18.50
2023-03-18T13:38:17.422Z,18.40
2023-03-18T13:41:02.310Z,18.40
2023-03-18T13:43:32.821Z,18.60
2023-03-18T13:46:00.895Z,18.70
2023-03-18T13:48:34.287Z,18.90
2023-03-18T13:51:25.515Z,19.00
2023-03-18T13:54:01.698Z,19.00
2023-03-18T13:56:40.348Z,19.00
2023-03-18T13:59:28.607Z,19.00
2023-03-18T14:02:17.617Z,19.00
2023-03-18T14:04:51.962Z,19.00
2023-03-18T14:07:21.512Z,19.00
2023-03-18T14:10:21.795Z,19.00
2023-03-18T14:12:49.107Z,18.80
2023-03-18T14:15:15.838Z,18.60
2023-03-18T14:17:55.624Z,18.50
2023-03-18T14:20:50.017Z,18.40
2023-03-18T14:23:39.191Z,18.30
2023-03-18T14:26:23.432Z,18.20
2023-03-18T14:28:56.547Z,18.00
2023-03-18T14:31:43.892Z,17.80
2023-03-18T14:34:14.810Z,17.60
2023-03-18T14:36:53.437Z,17.40
2023-03-18T14:39:42.886Z,17.10
2023-03-18T14:42:31.673Z,16.90
2023-03-18T14:45:13.032Z,16.60
2023-03-18T14:47:48.668Z,16.30
2023-03-18T14:50:15.409Z,16.00
2023-03-18T14:52:47.986Z,15.80
2023-03-18T14:55:21.517Z,15.60
2023-03-18T14:57:48.237Z,15.40
2023-03-18T15:00:16.446Z,15.30
2023-03-18T15:02:45.288Z,15.00
2023-03-18T15:05:18.296Z,14.80
2023-03-18T15:07:52.750Z,14.70
2023-03-18T15:10:24.598Z,14.60
2023-03-18T15:13:11.575Z,14.50
2023-03-18T15:15:39.331Z,14.30
2023-03-18T15:18:20.027Z,14.30
2023-03-18T15:21:05.567Z,14.30
2023-03-18T15:23:39.150Z,14.20
2023-03-18T15:26:18.649Z,14.10
2023-03-18T15:28:53.029Z,14.00
2023-03-18T15:31:29.061Z,13.90
2023-03-18T15:34:19.164Z,13.90
2023-03-18T15:36:55.423Z,13.80
2023-03-18T15:39:36.089Z,13.70
2023-03-18T15:42:12.666Z,13.70
2023-03-18T15:44:40.530Z,13.60
2023-03-18T15:47:13.698Z,13.50
2023-03-18T15:50:01.181Z,13.50
2023-03-18T15:52:34.157Z,13.50
2023-03-18T15:55:02.384Z,13.40
2023-03-18T15:57:32.869Z,13.40
2023-03-18T16:00:00.252Z,13.30
2023-03-18T16:02:28.714Z,13.20
2023-03-18T16:05:26.628Z,13.10
2023-03-18T16:07:53.991Z,13.10
2023-03-18T16:10:23.131Z,13.00
2023-03-18T16:12:58.033Z,12.90
2023-03-18T16:15:26.421Z,12.80
2023-03-18T16:17:55.570Z,12.70
2023-03-18T16:20:25.741Z,12.70
2023-03-18T16:22:55.071Z,12.70
2023-03-18T16:25:24.251Z,12.50
2023-03-18T16:27:54.269Z,12.50
2023-03-18T16:30:27.565Z,12.40
2023-03-18T16:32:55.982Z,12.40
2023-03-18T16:35:30.783Z,12.30
2023-03-18T16:37:58.921Z,12.20
2023-03-18T16:40:28.201Z,12.20
2023-03-18T16:42:55.757Z,12.20
2023-03-18T16:45:31.039Z,12.10
2023-03-18T16:48:04.922Z,12.10
2023-03-18T16:50:40.564Z,12.00
2023-03-18T16:53:34.494Z,11.90
2023-03-18T16:56:09.099Z,11.90
2023-03-18T16:58:37.508Z,11.80
2023-03-18T17:01:08.568Z,11.80
2023-03-18T17:03:36.363Z,11.70
2023-03-18T17:06:03.682Z,11.70
2023-03-18T17:08:30.666Z,11.60
2023-03-18T17:10:59.741Z,11.60
2023-03-18T17:13:31.169Z,11.50
2023-03-18T17:15:57.979Z,11.50
2023-03-18T17:18:25.344Z,11.40
2023-03-18T17:20:52.422Z,11.40
2023-03-18T17:23:25.403Z,11.30
2023-03-18T17:25:59.246Z,11.30
2023-03-18T17:28:34.715Z,11.20
2023-03-18T17:31:02.520Z,11.10
2023-03-18T17:33:34.770Z,11.10
2023-03-18T17:36:02.105Z,11.10
2023-03-18T17:38:31.077Z,11.00
2023-03-18T17:40:59.586Z,11.00
2023-03-18T17:43:32.570Z,11.00
2023-03-18T17:46:01.088Z,10.90
2023-03-18T17:48:30.381Z,10.90
2023-03-18T17:51:12.201Z,10.80
2023-03-18T17:53:42.247Z,10.80
2023-03-18T17:56:12.302Z,10.70
2023-03-18T17:58:41.932Z,10.70
2023-03-18T18:01:18.112Z,10.60
2023-03-18T18:03:45.474Z,10.60
2023-03-18T18:06:21.030Z,10.60
2023-03-18T18:08:49.191Z,10.50
2023-03-18T18:11:28.050Z,10.50
2023-03-18T18:13:58.146Z,10.40
2023-03-18T18:16:25.186Z,10.40
2023-03-18T18:18:52.145Z,10.30
2023-03-18T18:21:24.419Z,10.30
2023-03-18T18:23:51.362Z,10.30
2023-03-18T18:26:20.058Z,10.30
2023-03-18T18:28:49.108Z,10.30
2023-03-18T18:31:19.361Z,10.20
2023-03-18T18:33:49.756Z,10.20
2023-03-18T18:36:18.062Z,10.20
2023-03-18T18:38:45.164Z,10.20
2023-03-18T18:41:11.957Z,10.20
2023-03-18T18:43:38.797Z,10.10
2023-03-18T18:46:15.093Z,10.10
2023-03-18T18:48:44.308Z,10.10
2023-03-18T18:51:19.133Z,10.10
2023-03-18T18:53:46.513Z,10.00
2023-03-18T18:56:32.193Z,10.10
2023-03-18T18:58:59.307Z,10.00
2023-03-18T19:01:26.285Z,10.00
2023-03-18T19:03:53.738Z,10.00
2023-03-18T19:06:21.164Z,9.90
2023-03-18T19:08:47.958Z,9.90
2023-03-18T19:11:14.870Z,9.90
2023-03-18T19:13:42.412Z,9.90
2023-03-18T19:16:21.197Z,9.90
2023-03-18T19:18:48.536Z,9.90
2023-03-18T19:21:15.281Z,9.80
2023-03-18T19:23:42.057Z,9.80
2023-03-18T19:26:11.649Z,9.90
2023-03-18T19:28:57.576Z,9.80
2023-03-18T19:31:27.298Z,9.70
2023-03-18T19:33:54.790Z,9.70
2023-03-18T19:36:36.912Z,9.70
2023-03-18T19:39:04.504Z,9.70
2023-03-18T19:41:31.294Z,9.70
2023-03-18T19:44:04.105Z,9.60
2023-03-18T19:46:39.369Z,9.60
2023-03-18T19:49:33.376Z,9.60
2023-03-18T19:52:01.525Z,9.60
2023-03-18T19:54:34.452Z,9.50
2023-03-18T19:57:28.063Z,9.50
2023-03-18T19:59:57.427Z,9.40
2023-03-18T20:02:27.776Z,9.40
2023-03-18T20:04:56.842Z,9.30
2023-03-18T20:07:26.122Z,9.30
2023-03-18T20:09:53.742Z,9.30
2023-03-18T20:12:34.732Z,9.30
2023-03-18T20:15:01.715Z,9.20
2023-03-18T20:17:37.194Z,9.20
2023-03-18T20:20:05.524Z,9.10
2023-03-18T20:22:36.035Z,9.10
2023-03-18T20:25:05.041Z,9.10
2023-03-18T20:27:32.550Z,9.00
2023-03-18T20:29:59.420Z,9.00
2023-03-18T20:32:26.283Z,9.00
2023-03-18T20:34:53.105Z,8.90
2023-03-18T20:37:34.865Z,8.90
2023-03-18T20:40:11.002Z,8.90
2023-03-18T20:42:37.928Z,8.90
2023-03-18T20:45:07.128Z,8.90
2023-03-18T20:47:33.959Z,8.80
2023-03-18T20:50:00.703Z,8.90
2023-03-18T20:52:31.284Z,8.80
2023-03-18T20:54:58.323Z,8.80
2023-03-18T20:57:28.199Z,8.70
2023-03-18T20:59:55.537Z,8.70
2023-03-18T21:02:31.925Z,8.70
2023-03-18T21:05:00.921Z,8.70
2023-03-18T21:07:29.072Z,8.60
2023-03-18T21:09:55.981Z,8.60
2023-03-18T21:12:22.998Z,8.60
2023-03-18T21:14:50.637Z,8.60
2023-03-18T21:17:23.172Z,8.50
2023-03-18T21:19:51.378Z,8.60
2023-03-18T21:22:23.724Z,8.50
2023-03-18T21:24:51.800Z,8.50
2023-03-18T21:27:36.874Z,8.50
2023-03-18T21:30:04.324Z,8.50
2023-03-18T21:32:34.751Z,8.50
2023-03-18T21:35:01.639Z,8.50
2023-03-18T21:37:28.665Z,8.40
2023-03-18T21:39:55.981Z,8.40
2023-03-18T21:42:32.837Z,8.40
2023-03-18T21:44:59.829Z,8.40
2023-03-18T21:47:27.229Z,8.40
2023-03-18T21:49:54.067Z,8.40
2023-03-18T21:52:29.896Z,8.40
2023-03-18T21:54:57.437Z,8.40
2023-03-18T21:57:27.447Z,8.40
2023-03-18T21:59:54.311Z,8.40
2023-03-18T22:02:31.615Z,8.40
2023-03-18T22:05:03.261Z,8.30
2023-03-18T22:07:31.784Z,8.30
2023-03-18T22:10:00.801Z,8.30
2023-03-18T22:12:34.531Z,8.30
2023-03-18T22:15:01.842Z,8.30
2023-03-18T22:17:39.145Z,8.30
2023-03-18T22:20:11.180Z,8.30
2023-03-18T22:22:41.432Z,8.30
2023-03-18T22:25:39.336Z,8.20
2023-03-18T22:28:11.746Z,8.30
2023-03-18T22:30:43.889Z,8.20
2023-03-18T22:33:32.287Z,8.20
2023-03-18T22:36:05.877Z,8.20
2023-03-18T22:38:39.651Z,8.20
2023-03-18T22:41:24.923Z,8.20
2023-03-18T22:44:00.230Z,8.20
2023-03-18T22:46:33.268Z,8.20
2023-03-18T22:49:08.269Z,8.10
2023-03-18T22:51:39.433Z,8.10
2023-03-18T22:54:18.070Z,8.10
2023-03-18T22:56:48.417Z,8.00
2023-03-18T22:59:16.224Z,8.00
2023-03-18T23:01:45.669Z,8.10
2023-03-18T23:04:14.033Z,7.90
2023-03-18T23:06:49.617Z,7.90
2023-03-18T23:09:17.248Z,7.90
2023-03-18T23:11:46.452Z,7.90
2023-03-18T23:14:13.279Z,7.90
2023-03-18T23:16:40.057Z,7.80
2023-03-18T23:19:14.044Z,7.80
2023-03-18T23:21:43.049Z,7.80
2023-03-18T23:24:13.887Z,7.70
2023-03-18T23:26:50.475Z,7.70
2023-03-18T23:29:23.312Z,7.70
2023-03-18T23:31:55.866Z,7.70
2023-03-18T23:34:23.720Z,7.60
2023-03-18T23:36:52.065Z,7.60
2023-03-18T23:39:21.453Z,7.60
2023-03-18T23:41:48.714Z,7.60
2023-03-18T23:44:16.569Z,7.60
2023-03-18T23:46:52.876Z,7.50
2023-03-18T23:49:58.654Z,7.60
2023-03-18T23:52:53.405Z,7.60
2023-03-18T23:55:39.726Z,7.60
2023-03-18T23:58:31.015Z,7.60
